createdAt,value
2018-07-10T00:02:17.608Z,11.23
2018-07-10T00:06:02.062Z,10.07
2018-07-10T00:10:48.788Z,10.03
2018-07-10T00:13:18.710Z,10.00
2018-07-10T00:15:48.578Z,10.70
2018-07-10T00:18:18.477Z,10.23
2018-07-10T00:20:48.471Z,9.63
2018-07-10T00:23:18.454Z,9.57
2018-07-10T00:25:48.361Z,9.03
2018-07-10T00:28:18.228Z,9.77
2018-07-10T00:30:48.251Z,9.97
2018-07-10T00:33:18.291Z,10.17
2018-07-10T00:35:48.156Z,9.60
2018-07-10T00:38:28.661Z,9.63
2018-07-10T00:40:58.687Z,9.83
2018-07-10T00:43:28.653Z,9.83
2018-07-10T00:45:58.591Z,10.13
2018-07-10T00:48:28.508Z,10.07
2018-07-10T00:50:58.652Z,9.90
2018-07-10T00:53:28.656Z,9.17
2018-07-10T00:55:58.524Z,8.53
2018-07-10T00:58:28.519Z,9.13
2018-07-10T01:00:58.571Z,8.10
2018-07-10T01:03:28.492Z,8.17
2018-07-10T01:05:58.449Z,8.00
2018-07-10T01:08:28.375Z,8.03
2018-07-10T01:11:07.497Z,7.60
2018-07-10T01:13:37.715Z,7.93
2018-07-10T01:16:07.769Z,7.50
2018-07-10T01:18:45.885Z,6.77
2018-07-10T01:21:18.330Z,6.60
2018-07-10T01:23:55.787Z,7.10
2018-07-10T01:26:26.488Z,6.93
2018-07-10T01:29:01.208Z,6.83
2018-07-10T01:31:31.305Z,7.37
2018-07-10T01:34:01.296Z,6.80
2018-07-10T01:36:31.351Z,6.90
2018-07-10T01:39:01.239Z,6.67
2018-07-10T01:41:31.276Z,8.53
2018-07-10T01:44:01.255Z,9.07
2018-07-10T01:46:31.496Z,7.17
2018-07-10T01:49:01.580Z,7.07
2018-07-10T01:51:32.617Z,6.53
2018-07-10T01:54:02.608Z,6.27
2018-07-10T01:56:32.878Z,6.27
2018-07-10T01:59:03.065Z,6.00
2018-07-10T02:01:32.956Z,7.47
2018-07-10T02:04:02.980Z,6.47
2018-07-10T02:06:32.936Z,7.20
2018-07-10T02:09:02.968Z,8.17
2018-07-10T02:11:33.048Z,6.40
2018-07-10T02:14:03.066Z,7.00
2018-07-10T02:16:33.020Z,6.77
2018-07-10T02:19:03.004Z,7.20
2018-07-10T02:21:33.019Z,9.37
2018-07-10T02:24:03.019Z,7.10
2018-07-10T02:26:33.032Z,6.70
2018-07-10T02:29:03.092Z,8.60
2018-07-10T02:31:33.048Z,7.53
2018-07-10T02:34:03.024Z,6.57
2018-07-10T02:36:32.915Z,8.70
2018-07-10T02:39:03.013Z,8.20
2018-07-10T02:41:33.009Z,7.43
2018-07-10T02:44:04.176Z,7.53
2018-07-10T02:46:38.285Z,7.37
2018-07-10T02:49:21.008Z,6.83
2018-07-10T02:51:59.067Z,7.83
2018-07-10T02:54:30.868Z,10.90
2018-07-10T02:57:00.917Z,7.63
2018-07-10T02:59:36.756Z,8.10
2018-07-10T03:02:08.925Z,7.50
2018-07-10T03:04:41.068Z,7.63
2018-07-10T03:07:14.284Z,7.73
2018-07-10T03:09:45.528Z,10.63
2018-07-10T03:12:16.467Z,11.00
2018-07-10T03:14:46.553Z,11.47
2018-07-10T03:17:21.332Z,9.63
2018-07-10T03:19:52.331Z,9.73
2018-07-10T03:22:22.284Z,7.87
2018-07-10T03:24:52.324Z,7.63
2018-07-10T03:27:22.188Z,8.40
2018-07-10T03:29:52.564Z,8.30
2018-07-10T03:32:22.576Z,8.83
2018-07-10T03:34:52.536Z,7.90
2018-07-10T03:37:22.529Z,11.27
2018-07-10T03:39:52.507Z,10.40
2018-07-10T03:42:22.472Z,11.03
2018-07-10T03:44:52.552Z,9.40
2018-07-10T03:47:22.552Z,8.93
2018-07-10T03:49:52.914Z,11.17
2018-07-10T03:52:28.010Z,9.07
2018-07-10T03:55:00.615Z,8.43
2018-07-10T03:57:30.645Z,8.43
2018-07-10T04:00:06.183Z,8.40
2018-07-10T04:02:37.052Z,7.27
2018-07-10T04:05:06.972Z,6.70
2018-07-10T04:07:37.046Z,6.50
2018-07-10T04:10:07.553Z,6.53
2018-07-10T04:12:38.312Z,6.20
2018-07-10T04:15:08.292Z,6.53
2018-07-10T04:17:43.220Z,7.63
2018-07-10T04:20:16.748Z,9.47
2018-07-10T04:22:52.513Z,8.50
2018-07-10T04:25:26.580Z,7.77
2018-07-10T04:28:02.460Z,5.80
2018-07-10T04:30:57.165Z,7.97
2018-07-10T04:33:27.211Z,6.43
2018-07-10T04:35:57.284Z,5.77
2018-07-10T04:38:28.856Z,6.70
2018-07-10T04:41:05.235Z,7.27
2018-07-10T04:43:35.236Z,5.57
2018-07-10T04:46:05.300Z,5.63
2018-07-10T04:48:39.905Z,5.40
2018-07-10T04:51:18.988Z,10.50
2018-07-10T04:53:56.552Z,6.03
2018-07-10T04:56:26.989Z,5.97
2018-07-10T04:58:57.260Z,6.00
2018-07-10T05:01:34.572Z,4.60
2018-07-10T05:04:05.455Z,6.00
2018-07-10T05:06:36.132Z,9.70
2018-07-10T05:09:06.738Z,5.60
2018-07-10T05:11:40.245Z,5.50
2018-07-10T05:14:10.428Z,6.00
2018-07-10T05:16:40.442Z,6.70
2018-07-10T05:19:10.763Z,6.07
2018-07-10T05:21:41.597Z,5.80
2018-07-10T05:24:11.978Z,6.20
2018-07-10T05:26:42.625Z,6.50
2018-07-10T05:29:12.676Z,6.50
2018-07-10T05:31:43.000Z,8.93
2018-07-10T05:34:13.212Z,5.57
2018-07-10T05:36:43.496Z,5.87
2018-07-10T05:39:13.681Z,5.83
2018-07-10T05:41:46.204Z,5.87
2018-07-10T05:44:19.832Z,5.93
2018-07-10T05:46:49.916Z,6.07
2018-07-10T05:49:20.051Z,5.50
2018-07-10T05:51:52.443Z,6.10
2018-07-10T05:54:23.740Z,5.47
2018-07-10T05:56:53.808Z,5.53
2018-07-10T05:59:23.802Z,6.50
2018-07-10T06:01:53.892Z,7.40
2018-07-10T06:04:24.167Z,6.77
2018-07-10T06:06:54.304Z,7.67
2018-07-10T06:09:24.380Z,4.93
2018-07-10T06:11:54.317Z,6.43
2018-07-10T06:14:24.530Z,4.63
2018-07-10T06:16:54.755Z,4.57
2018-07-10T06:19:24.777Z,5.63
2018-07-10T06:21:54.841Z,4.60
2018-07-10T06:24:26.967Z,5.73
2018-07-10T06:27:03.156Z,4.97
2018-07-10T06:30:37.944Z,8.00
2018-07-10T06:33:19.959Z,7.40
2018-07-10T06:35:55.240Z,7.73
2018-07-10T06:38:25.275Z,5.33
2018-07-10T06:40:55.424Z,6.87
2018-07-10T06:43:34.434Z,5.13
2018-07-10T06:46:04.527Z,6.13
2018-07-10T06:48:37.789Z,9.43
2018-07-10T06:51:14.804Z,6.63
2018-07-10T06:53:46.069Z,10.10
2018-07-10T06:56:25.864Z,6.77
2018-07-10T06:58:56.141Z,6.87
2018-07-10T07:01:26.244Z,7.87
2018-07-10T07:04:02.114Z,6.77
2018-07-10T07:06:32.560Z,7.27
2018-07-10T07:09:02.526Z,5.40
2018-07-10T07:11:32.560Z,6.50
2018-07-10T07:14:02.540Z,4.33
2018-07-10T07:16:32.484Z,3.10
2018-07-10T07:19:02.473Z,3.70
2018-07-10T07:21:32.529Z,5.90
2018-07-10T07:24:02.581Z,3.77
2018-07-10T07:26:32.780Z,3.50
2018-07-10T07:29:03.088Z,10.10
2018-07-10T07:31:33.347Z,3.83
2018-07-10T07:34:03.476Z,3.30
2018-07-10T07:36:33.582Z,7.60
2018-07-10T07:39:04.946Z,10.53
2018-07-10T07:41:34.868Z,4.87
2018-07-10T07:44:05.116Z,5.67
2018-07-10T07:46:35.151Z,3.90
2018-07-10T07:49:05.192Z,4.13
2018-07-10T07:51:35.303Z,5.27
2018-07-10T07:54:06.028Z,3.23
2018-07-10T07:56:36.732Z,5.23
2018-07-10T07:59:07.014Z,6.50
2018-07-10T08:01:37.000Z,5.60
2018-07-10T08:04:07.082Z,8.00
2018-07-10T08:06:37.231Z,6.93
2018-07-10T08:09:07.780Z,2.90
2018-07-10T08:11:37.832Z,8.17
2018-07-10T08:14:07.985Z,3.43
2018-07-10T08:16:38.112Z,3.40
2018-07-10T08:19:08.106Z,8.33
2018-07-10T08:21:39.645Z,6.13
2018-07-10T08:24:09.776Z,4.43
2018-07-10T08:26:39.952Z,2.63
2018-07-10T08:29:10.224Z,3.93
2018-07-10T08:31:40.987Z,3.53
2018-07-10T08:34:10.969Z,3.90
2018-07-10T08:36:41.881Z,11.10
2018-07-10T08:39:12.169Z,3.03
2018-07-10T08:41:46.947Z,17.93
2018-07-10T08:44:20.417Z,10.43
2018-07-10T08:46:58.053Z,2.50
2018-07-10T08:49:32.692Z,3.53
2018-07-10T08:52:02.780Z,2.43
2018-07-10T08:54:32.970Z,8.13
2018-07-10T08:57:03.945Z,4.00
2018-07-10T08:59:34.789Z,19.50
2018-07-10T09:02:04.904Z,7.47
2018-07-10T09:04:35.302Z,3.00
2018-07-10T09:07:05.955Z,7.40
2018-07-10T09:09:36.065Z,8.30
2018-07-10T09:12:06.080Z,4.93
2018-07-10T09:14:36.020Z,3.93
2018-07-10T09:17:06.025Z,4.53
2018-07-10T09:19:36.164Z,2.97
2018-07-10T09:22:11.613Z,2.60
2018-07-10T09:24:48.094Z,2.80
2018-07-10T09:27:21.472Z,3.23
2018-07-10T09:29:51.720Z,6.73
2018-07-10T09:32:27.579Z,3.10
2018-07-10T09:34:58.852Z,2.77
2018-07-10T09:37:36.274Z,2.53
2018-07-10T09:40:11.970Z,7.70
2018-07-10T09:42:47.268Z,4.53
2018-07-10T09:45:17.430Z,3.27
2018-07-10T09:47:47.564Z,5.73
2018-07-10T09:50:17.744Z,8.03
2018-07-10T09:52:49.038Z,4.13
2018-07-10T09:55:19.194Z,8.03
2018-07-10T09:57:49.408Z,2.80
2018-07-10T10:00:24.900Z,6.80
2018-07-10T10:02:56.399Z,2.73
2018-07-10T10:05:26.952Z,5.20
2018-07-10T10:07:56.992Z,10.93
2018-07-10T10:10:27.240Z,8.63
2018-07-10T10:12:57.396Z,2.67
2018-07-10T10:15:31.881Z,13.50
2018-07-10T10:18:04.039Z,2.47
2018-07-10T10:20:34.965Z,3.00
2018-07-10T10:23:05.385Z,3.03
2018-07-10T10:25:38.482Z,3.33
2018-07-10T10:28:09.799Z,8.00
2018-07-10T10:30:40.688Z,13.43
2018-07-10T10:33:11.088Z,3.60
2018-07-10T10:35:41.281Z,17.50
2018-07-10T10:38:11.484Z,2.90
2018-07-10T10:40:41.791Z,8.53
2018-07-10T10:43:13.080Z,6.33
2018-07-10T10:45:44.521Z,14.53
2018-07-10T10:48:16.040Z,1.67
2018-07-10T10:50:52.332Z,3.43
2018-07-10T10:53:23.440Z,2.40
2018-07-10T10:55:53.519Z,2.67
2018-07-10T10:58:23.536Z,2.50
2018-07-10T11:00:53.851Z,1.73
2018-07-10T11:03:24.068Z,1.80
2018-07-10T11:05:54.138Z,2.13
2018-07-10T11:08:24.320Z,2.53
2018-07-10T11:10:54.392Z,5.07
2018-07-10T11:13:26.742Z,2.43
2018-07-10T11:15:56.885Z,12.27
2018-07-10T11:18:44.209Z,2.50
2018-07-10T11:22:23.324Z,1.87
2018-07-10T11:25:04.000Z,2.00
2018-07-10T11:27:42.919Z,2.30
2018-07-10T11:30:12.988Z,2.30
2018-07-10T11:32:43.125Z,2.63
2018-07-10T11:35:13.120Z,2.57
2018-07-10T11:37:43.244Z,2.70
2018-07-10T11:40:14.209Z,5.63
2018-07-10T11:42:44.652Z,3.30
2018-07-10T11:45:14.673Z,7.50
2018-07-10T11:47:44.800Z,2.47
2018-07-10T11:50:14.860Z,2.27
2018-07-10T11:52:44.952Z,4.40
2018-07-10T11:55:15.041Z,2.50
2018-07-10T11:57:45.092Z,2.60
2018-07-10T12:00:15.168Z,2.57
2018-07-10T12:02:48.352Z,3.37
2018-07-10T12:05:19.611Z,2.73
2018-07-10T12:07:56.936Z,2.70
2018-07-10T12:10:31.595Z,5.60
2018-07-10T12:13:01.540Z,3.13
2018-07-10T12:15:31.765Z,2.40
2018-07-10T12:18:02.190Z,2.90
2018-07-10T12:20:41.476Z,3.30
2018-07-10T12:23:12.672Z,3.30
2018-07-10T12:25:44.106Z,3.40
2018-07-10T12:28:15.378Z,3.50
2018-07-10T12:30:45.381Z,3.70
2018-07-10T12:33:15.422Z,3.70
2018-07-10T12:35:45.398Z,3.63
2018-07-10T12:38:15.382Z,3.27
2018-07-10T12:40:45.473Z,3.70
2018-07-10T12:43:15.584Z,3.03
2018-07-10T12:45:45.605Z,3.10
2018-07-10T12:48:15.648Z,3.77
2018-07-10T12:50:45.837Z,3.77
2018-07-10T12:53:15.884Z,3.97
2018-07-10T12:55:46.178Z,5.37
2018-07-10T12:58:17.296Z,4.17
2018-07-10T13:00:47.336Z,4.87
2018-07-10T13:03:19.816Z,3.60
2018-07-10T13:05:54.807Z,4.27
2018-07-10T13:08:25.406Z,4.57
2018-07-10T13:10:55.539Z,3.60
2018-07-10T13:13:25.636Z,4.07
2018-07-10T13:15:55.816Z,10.20
2018-07-10T13:18:28.628Z,3.77
2018-07-10T13:20:58.772Z,6.10
2018-07-10T13:23:29.040Z,5.33
2018-07-10T13:25:59.180Z,7.40
2018-07-10T13:28:29.221Z,3.53
2018-07-10T13:30:59.281Z,4.70
2018-07-10T13:33:29.445Z,3.67
2018-07-10T13:35:59.504Z,3.40
2018-07-10T13:38:29.602Z,6.43
2018-07-10T13:41:01.562Z,4.20
2018-07-10T13:43:31.657Z,3.80
2018-07-10T13:46:01.829Z,4.23
2018-07-10T13:48:32.105Z,5.50
2018-07-10T13:51:02.093Z,4.00
2018-07-10T13:53:32.167Z,7.00
2018-07-10T13:56:02.297Z,5.00
2018-07-10T13:58:33.017Z,4.60
2018-07-10T14:01:07.784Z,4.80
2018-07-10T14:03:38.138Z,4.63
2018-07-10T14:06:08.228Z,7.83
2018-07-10T14:08:38.240Z,5.87
2018-07-10T14:11:08.270Z,6.27
2018-07-10T14:13:38.390Z,4.93
2018-07-10T14:16:08.439Z,5.40
2018-07-10T14:18:38.498Z,5.83
2018-07-10T14:21:09.504Z,6.13
2018-07-10T14:23:39.538Z,5.37
2018-07-10T14:26:09.577Z,5.90
2018-07-10T14:28:40.545Z,5.07
2018-07-10T14:31:10.588Z,5.60
2018-07-10T14:33:40.593Z,5.53
2018-07-10T14:36:10.688Z,5.70
2018-07-10T14:38:42.144Z,7.40
2018-07-10T14:41:12.638Z,4.70
2018-07-10T14:43:44.560Z,5.40
2018-07-10T14:46:18.508Z,6.30
2018-07-10T14:48:55.663Z,5.33
2018-07-10T14:51:32.058Z,7.23
2018-07-10T14:54:02.069Z,7.33
2018-07-10T14:56:32.116Z,6.50
2018-07-10T14:59:02.280Z,5.63
2018-07-10T15:01:32.280Z,5.33
2018-07-10T15:04:02.169Z,5.70
2018-07-10T15:06:32.120Z,5.43
2018-07-10T15:09:02.230Z,5.10
2018-07-10T15:11:32.145Z,4.83
2018-07-10T15:14:05.819Z,6.90
2018-07-10T15:16:40.665Z,8.83
2018-07-10T15:19:10.629Z,5.10
2018-07-10T15:21:40.640Z,5.97
2018-07-10T15:24:10.636Z,4.83
2018-07-10T15:26:40.656Z,4.97
2018-07-10T15:29:10.749Z,6.00
2018-07-10T15:31:40.640Z,5.03
2018-07-10T15:34:10.668Z,5.80
2018-07-10T15:36:40.536Z,5.17
2018-07-10T15:39:10.563Z,5.07
2018-07-10T15:41:40.554Z,5.70
2018-07-10T15:44:10.488Z,6.73
2018-07-10T15:46:40.477Z,5.37
2018-07-10T15:49:10.484Z,5.20
2018-07-10T15:51:40.389Z,5.57
2018-07-10T15:54:10.313Z,10.10
2018-07-10T15:56:40.220Z,6.20
2018-07-10T15:59:10.191Z,6.90
2018-07-10T16:01:40.192Z,6.80
2018-07-10T16:04:10.240Z,7.43
2018-07-10T16:06:40.279Z,7.90
2018-07-10T16:09:25.689Z,9.40
2018-07-10T16:12:00.279Z,7.87
2018-07-10T16:14:30.502Z,8.07
2018-07-10T16:17:00.872Z,7.63
2018-07-10T16:19:39.663Z,8.23
2018-07-10T16:22:25.106Z,8.50
2018-07-10T16:24:58.604Z,8.37
2018-07-10T16:27:36.308Z,8.57
2018-07-10T16:30:06.605Z,8.57
2018-07-10T16:32:38.988Z,8.50
2018-07-10T16:35:09.372Z,9.13
2018-07-10T16:37:39.370Z,9.50
2018-07-10T16:40:09.638Z,8.73
2018-07-10T16:42:44.700Z,8.60
2018-07-10T16:45:21.193Z,9.10
2018-07-10T16:47:59.540Z,8.77
2018-07-10T16:50:34.928Z,9.03
2018-07-10T16:53:04.976Z,9.00
2018-07-10T16:55:34.915Z,9.80
2018-07-10T16:58:04.840Z,9.13
2018-07-10T17:00:34.900Z,10.17
2018-07-10T17:03:04.929Z,9.03
2018-07-10T17:05:34.918Z,9.77
2018-07-10T17:08:04.824Z,9.83
2018-07-10T17:10:34.809Z,10.13
2018-07-10T17:13:04.820Z,9.93
2018-07-10T17:15:34.863Z,10.77
2018-07-10T17:18:05.032Z,10.30
2018-07-10T17:20:35.132Z,10.83
2018-07-10T17:23:05.176Z,9.73
2018-07-10T17:25:35.164Z,10.30
2018-07-10T17:28:05.256Z,9.60
2018-07-10T17:30:35.225Z,9.63
2018-07-10T17:33:05.227Z,10.80
2018-07-10T17:35:35.156Z,11.07
2018-07-10T17:38:05.204Z,11.73
2018-07-10T17:40:35.320Z,11.73
2018-07-10T17:43:05.393Z,11.83
2018-07-10T17:45:35.353Z,12.90
2018-07-10T17:48:05.445Z,12.73
2018-07-10T17:50:35.523Z,12.80
2018-07-10T17:53:05.523Z,12.33
2018-07-10T17:55:36.460Z,12.87
2018-07-10T17:58:06.872Z,13.07
2018-07-10T18:00:36.960Z,12.50
2018-07-10T18:03:06.884Z,12.00
2018-07-10T18:05:36.836Z,12.07
2018-07-10T18:08:06.898Z,11.67
2018-07-10T18:10:36.917Z,12.27
2018-07-10T18:13:07.060Z,12.17
2018-07-10T18:15:37.130Z,11.80
2018-07-10T18:18:07.092Z,12.33
2018-07-10T18:20:37.078Z,11.77
2018-07-10T18:23:07.184Z,12.00
2018-07-10T18:25:37.547Z,11.67
2018-07-10T18:28:07.691Z,12.53
2018-07-10T18:30:37.572Z,15.47
2018-07-10T18:33:07.635Z,12.50
2018-07-10T18:35:37.645Z,12.10
2018-07-10T18:38:07.636Z,11.97
2018-07-10T18:40:37.728Z,12.03
2018-07-10T18:43:07.748Z,12.30
2018-07-10T18:45:37.963Z,12.07
2018-07-10T18:48:08.052Z,11.47
2018-07-10T18:50:38.108Z,13.37
2018-07-10T18:53:08.084Z,12.27
2018-07-10T18:55:38.410Z,12.20
2018-07-10T18:59:16.086Z,11.97
2018-07-10T19:02:03.124Z,11.30
2018-07-10T19:05:06.824Z,11.70
2018-07-10T19:07:39.669Z,11.53
2018-07-10T19:10:09.701Z,11.53
2018-07-10T19:12:39.880Z,14.00
2018-07-10T19:15:10.058Z,12.90
2018-07-10T19:17:40.085Z,15.90
2018-07-10T19:20:11.526Z,11.10
2018-07-10T19:22:57.743Z,11.93
2018-07-10T19:25:27.807Z,11.00
2018-07-10T19:27:59.768Z,11.47
2018-07-10T19:30:33.328Z,10.80
2018-07-10T19:33:04.388Z,11.67
2018-07-10T19:35:34.417Z,11.43
2018-07-10T19:38:04.395Z,10.67
2018-07-10T19:40:34.452Z,11.07
2018-07-10T19:43:04.546Z,10.93
2018-07-10T19:45:34.452Z,10.67
2018-07-10T19:48:04.512Z,10.87
2018-07-10T19:50:39.544Z,10.90
2018-07-10T19:53:09.601Z,10.60
2018-07-10T19:55:43.721Z,10.80
2018-07-10T19:58:34.475Z,10.33
2018-07-10T20:01:25.243Z,11.60
2018-07-10T20:04:03.103Z,10.53
2018-07-10T20:06:44.201Z,11.10
2018-07-10T20:09:18.873Z,10.90
2018-07-10T20:11:56.534Z,10.57
2018-07-10T20:14:26.647Z,10.20
2018-07-10T20:17:03.708Z,10.63
2018-07-10T20:19:47.848Z,10.57
2018-07-10T20:22:27.624Z,11.27
2018-07-10T20:25:06.698Z,11.63
2018-07-10T20:27:45.416Z,12.10
2018-07-10T20:31:23.665Z,11.80
2018-07-10T20:34:33.912Z,13.27
2018-07-10T20:37:03.974Z,13.13
2018-07-10T20:39:35.822Z,12.70
2018-07-10T20:42:06.167Z,13.00
2018-07-10T20:44:45.373Z,13.30
2018-07-10T20:47:15.388Z,13.33
2018-07-10T20:49:55.671Z,12.57
2018-07-10T20:54:36.794Z,12.90
2018-07-10T20:57:22.082Z,13.70
2018-07-10T20:59:57.414Z,13.87
2018-07-10T21:03:05.736Z,14.63
2018-07-10T21:05:39.445Z,13.63
2018-07-10T21:09:17.908Z,14.60
2018-07-10T21:11:55.994Z,14.30
2018-07-10T21:14:35.260Z,15.13
2018-07-10T21:17:09.337Z,15.03
2018-07-10T21:21:54.212Z,14.87
2018-07-10T21:24:36.177Z,14.47
2018-07-10T21:27:07.348Z,15.47
2018-07-10T21:29:59.216Z,15.90
2018-07-10T21:32:48.973Z,15.87
2018-07-10T21:35:21.779Z,15.83
2018-07-10T21:40:08.515Z,15.13
2018-07-10T21:43:18.008Z,14.77
2018-07-10T21:48:24.544Z,14.70
2018-07-10T21:50:54.731Z,14.07
2018-07-10T21:53:24.888Z,13.70
2018-07-10T21:55:54.808Z,14.60
2018-07-10T21:58:24.813Z,15.13
2018-07-10T22:02:01.296Z,14.07
2018-07-10T22:04:32.531Z,14.70
2018-07-10T22:07:04.715Z,14.57
2018-07-10T22:09:36.332Z,15.37
2018-07-10T22:12:10.823Z,14.37
2018-07-10T22:14:41.600Z,14.27
2018-07-10T22:17:16.798Z,15.43
2018-07-10T22:19:48.595Z,15.13
2018-07-10T22:22:20.456Z,15.97
2018-07-10T22:24:51.659Z,16.13
2018-07-10T22:27:22.243Z,15.33
2018-07-10T22:30:02.974Z,16.47
2018-07-10T22:32:41.240Z,16.13
2018-07-10T22:35:11.279Z,15.70
2018-07-10T22:37:41.255Z,16.53
2018-07-10T22:40:11.269Z,17.40
2018-07-10T22:42:41.132Z,16.40
2018-07-10T22:45:11.228Z,18.10
2018-07-10T22:47:42.399Z,16.97
2018-07-10T22:50:17.956Z,16.50
2018-07-10T22:53:02.517Z,15.50
2018-07-10T22:55:33.589Z,16.37
2018-07-10T22:58:06.322Z,16.47
2018-07-10T23:00:37.462Z,15.40
2018-07-10T23:03:16.271Z,14.90
2018-07-10T23:05:47.158Z,16.00
2018-07-10T23:08:18.668Z,15.37
2018-07-10T23:10:48.671Z,16.50
2018-07-10T23:13:18.939Z,16.70
2018-07-10T23:15:49.362Z,16.77
2018-07-10T23:18:19.503Z,16.13
2018-07-10T23:20:49.420Z,16.07
2018-07-10T23:23:19.996Z,16.50
2018-07-10T23:25:49.774Z,16.67
2018-07-10T23:28:19.475Z,16.10
2018-07-10T23:30:49.192Z,16.17
2018-07-10T23:33:19.509Z,15.97
2018-07-10T23:35:56.299Z,15.43
2018-07-10T23:38:34.678Z,16.00
2018-07-10T23:41:04.402Z,15.00
2018-07-10T23:43:42.476Z,13.43
2018-07-10T23:46:20.674Z,14.80
2018-07-10T23:48:53.439Z,14.37
2018-07-10T23:51:23.175Z,13.73
2018-07-10T23:53:54.051Z,13.67
2018-07-10T23:56:24.088Z,13.03
2018-07-10T23:58:54.149Z,14.50
